Nearby METAR Reports

 

KSNK - Snyder/Winston, Texas, USA
Distance from station: SSE 25mi, 41km
Updated: Wed, 15-Jul-2020 11:55am CDT
Clear
Clear
 Wind from SSW
Wind: SSW 16 mph , 26 km/h, Gust: 23 mph , 37 km/h
Temperature: 93°F , 34°C
Dew Point: 61°F , 16°C
Humidity: 34%
Barometer: 29.98 inHg , 1015.2 hPa
Clouds: Clear
Visibility: 10 miles , 16 km
2020/07/15 16:55 KSNK 151655Z AUTO 20014G20KT 10SM CLR 34/16 A2998 RMK AO2 T03430159
KSWW - Sweetwater, Texas, USA
Distance from station: SE 56mi, 90km
Updated: Wed, 15-Jul-2020 11:55am CDT
Clear
Clear
 Wind from S
Wind: S 14 mph , 22 km/h, Gust: 21 mph , 33 km/h
Temperature: 97°F , 36°C
Dew Point: 57°F , 14°C
Humidity: 27%
Barometer: 30.01 inHg , 1016.3 hPa
Clouds: Clear
Visibility: 10 miles , 16 km
2020/07/15 16:55 KSWW 151655Z AUTO 17012G18KT 10SM CLR 36/14 A3001 RMK AO2 T03550138
 
KLBB - Lubbock, Texas, USA
Distance from station: NW 59mi, 94km
Updated: Wed, 15-Jul-2020 11:53am CDT
Mostly cloudy
Mostly cloudy
 Wind from WNW
Wind: WNW 10 mph , 17 km/h
Temperature: 88°F , 31°C
Dew Point: 59°F , 15°C
Humidity: 38%
Barometer: 30.02 inHg , 1016.6 hPa
Clouds: Mostly cloudy
Visibility: 10 miles , 16 km
Cloud details: Few Clouds 9000 ft
Partly cloudy 15000 ft
Mostly cloudy 19000 ft
2020/07/15 16:53 KLBB 151653Z 29009KT 10SM FEW090 SCT150 BKN190 31/15 A3002 RMK AO2 SLP101 VIRGA DSNT N-E AND W SHRA DSNT N-E T03060150
KPVW - Plainview, Texas, USA
Distance from station: NNW 85mi, 137km
Updated: Wed, 15-Jul-2020 11:55am CDT
Clear
Clear
 Wind from WNW
Wind: WNW 9 mph , 15 km/h
Temperature: 90°F , 32°C
Dew Point: 57°F , 14°C
Humidity: 33%
Barometer: 30.03 inHg , 1016.9 hPa
Clouds: Clear
Visibility: 10 miles , 16 km
2020/07/15 16:55 KPVW 151655Z AUTO 29008KT 10SM CLR 32/14 A3003 RMK AO2 T03170141
 
KDYS - Dyess Afb/Abilen, Texas, USA
Distance from station: ESE 88mi, 141km
Updated: Wed, 15-Jul-2020 11:56am CDT
Few Clouds
Few Clouds
 Wind from S
Wind: S 15 mph , 24 km/h, Gust: 22 mph , 35 km/h
Temperature: 91°F , 33°C
Dew Point: 63°F , 17°C
Humidity: 38%
Barometer: 29.98 inHg , 1015.2 hPa
Clouds: Few Clouds
Visibility: 10 miles , 16 km
Cloud details: Few Clouds 16000 ft
Few Clouds 20000 ft
2020/07/15 16:56 KDYS 151656Z AUTO 18013G19KT 10SM FEW160 FEW200 33/17 A2998 RMK AO2 SLP094 T03330166
KGNC - Seminole, Texas, USA
Distance from station: WSW 89mi, 144km
Updated: Wed, 15-Jul-2020 11:55am CDT
Clear
Clear
 Wind from NNE
Wind: NNE 3 mph , 6 km/h
Temperature: 95°F , 35°C
Dew Point: 46°F , 8°C
Humidity: 19%
Barometer: 30.06 inHg , 1017.9 hPa
Clouds: Clear
Visibility: 10 miles , 16 km
2020/07/15 16:55 KGNC 151655Z AUTO 02003KT 10SM CLR 35/08 A3006 RMK AO2 T03530084
 
KE11 - Andrews, Texas, USA
Distance from station: WSW 93mi, 149km
Updated: Wed, 15-Jul-2020 11:55am CDT
Clear
Clear
 Wind from S
Wind: S 6 mph , 9 km/h
Temperature: 97°F , 36°C
Dew Point: 46°F , 8°C
Humidity: 18%
Barometer: 30.01 inHg , 1016.3 hPa
Clouds: Clear
Visibility: 10 miles , 16 km
2020/07/15 16:55 KE11 151655Z AUTO 18005KT 10SM CLR 36/08 A3001 RMK AO2 T03570077
KABI - Abilene, Texas, USA
Distance from station: ESE 96mi, 154km
Updated: Wed, 15-Jul-2020 10:52am CDT
Clear
Clear
 
Temperature: 86°F , 30°C
Heat Index: 88°F , 31°C
Dew Point: 66°F , 19°C
Humidity: 52%
Barometer: 29.97 inHg , 1014.9 hPa
Clouds: Clear
Visibility: 10 miles , 16 km
2020/07/15 15:52 KABI 151552Z 10SM CLR 30/19 A2997 RMK AO2 SLP117 T03000194 $
 
KMAF - Midland, Texas, USA
Distance from station: SW 96mi, 154km
Updated: Wed, 15-Jul-2020 11:53am CDT
Clear
Clear
 Wind from SW
Wind: SW 14 mph , 22 km/h
Temperature: 97°F , 36°C
Dew Point: 46°F , 8°C
Humidity: 18%
Barometer: 29.98 inHg , 1015.2 hPa
Clouds: Clear
Visibility: 10 miles , 16 km
2020/07/15 16:53 KMAF 151653Z 22012KT 10SM CLR 36/08 A2998 RMK AO2 SLP094 T03560078
KCDS - Childress, Texas, USA
Distance from station: NNE 110mi, 177km
Updated: Wed, 15-Jul-2020 11:53am CDT
Clear
Clear
 
Temperature: 90°F , 32°C
Dew Point: 61°F , 16°C
Humidity: 38%
Barometer: 29.96 inHg , 1014.6 hPa
Clouds: Clear
Visibility: 10 miles , 16 km
2020/07/15 16:53 KCDS 151653Z AUTO 10SM CLR 32/16 A2996 RMK AO2 SLP108 T03170156
 
KSJT - San Angelo, Texas, USA
Distance from station: SSE 121mi, 194km
Updated: Wed, 15-Jul-2020 11:51am CDT
Clear
Clear
 Wind from S
Wind: S 10 mph , 17 km/h
Temperature: 93°F , 34°C
Dew Point: 61°F , 16°C
Humidity: 34%
Barometer: 29.99 inHg , 1015.6 hPa
Clouds: Clear
Visibility: 10 miles , 16 km
2020/07/15 16:51 KSJT 151651Z 17009KT 10SM CLR 34/16 A2999 RMK AO2 SLP124 T03390161
KHOB - Hobbs/Lea Co., New Mexico, USA
Distance from station: WSW 122mi, 196km
Updated: Wed, 15-Jul-2020 10:50am CDT
Clear
Clear
 Wind from varies
Wind: varies 5 mph , 7 km/h
Temperature: 93°F , 34°C
Dew Point: 43°F , 6°C
Humidity: 17%
Barometer: 30.04 inHg , 1017.3 hPa
Clouds: Clear
Visibility: 10 miles , 16 km
2020/07/15 15:50 KHOB 151550Z VRB04KT 10SM SKC 34/06 A3004
 
KCOM - Coleman Muni, Texas, USA
Distance from station: SE 131mi, 212km
Updated: Wed, 15-Jul-2020 11:55am CDT
Clear
Clear
 Wind from S
Wind: S 8 mph , 13 km/h
Temperature: 88°F , 31°C
Heat Index: 88°F , 31°C
Dew Point: 61°F , 16°C
Humidity: 40%
Barometer: 30.01 inHg , 1016.3 hPa
Clouds: Clear
Visibility: 10 miles , 16 km
2020/07/15 16:55 KCOM 151655Z AUTO 18007KT 10SM CLR 31/16 A3001 RMK AO2 T03060161
KBKD - Breckenridge, Texas, USA
Distance from station: E 134mi, 215km
Updated: Wed, 15-Jul-2020 11:55am CDT
Haze, Clear
Haze, Clear
 Wind from S
Wind: S 12 mph , 19 km/h, Gust: 18 mph , 30 km/h
Temperature: 93°F , 34°C
Heat Index: 96°F , 36°C
Dew Point: 66°F , 19°C
Humidity: 41%
Barometer: 29.94 inHg , 1013.9 hPa
Summary: Haze
Clouds: Clear
Visibility: 5 miles , 8 km
2020/07/15 16:55 KBKD 151655Z AUTO 17010G16KT 5SM HZ CLR 34/19 A2994 RMK AO2 T03430194
 
KF05 - Vernon Wilbarger, Texas, USA
Distance from station: NE 137mi, 220km
Updated: Wed, 15-Jul-2020 11:55am CDT
Clear
Clear
 Wind from SSW
Wind: SSW 9 mph , 15 km/h
Temperature: 93°F , 34°C
Dew Point: 59°F , 15°C
Humidity: 32%
Barometer: 29.92 inHg , 1013.2 hPa
Clouds: Clear
Visibility: 10 miles , 16 km
2020/07/15 16:55 KF05 151655Z AUTO 21008KT 10SM CLR 34/15 A2992 RMK AO1 T03390145